Time;durP1;ratioP1;P1;durP2;ratioP2;P2;SDS_P1;SDS_P2;PMS_P1;PMS_P2;Temp;Humidity;BMP_temperature;BMP_pressure;BME280_temperature;BME280_humidity;BME280_pressure;Samples;Min_cycle;Max_cycle;Signal;HPM_P1;HPM_P2
2023/04/03 00:01:09;;;;;;;;;;;;;;;;;;4975968;28;20481;-69
2023/04/03 00:03:35;;;;;;;;;;;;;;;;;;4990964;28;19925;-69
2023/04/03 00:06:03;;;;;;;;;;;;;;;;;;4976387;28;20020;-69
2023/04/03 00:08:30;;;;;;;;;;;;;;;;;;4964371;28;19928;-70
2023/04/03 00:10:58;;;;;;;;;;;;;;;;;;4963735;28;20486;-70
2023/04/03 00:13:24;;;;;;;;;;;;;;;;;;4980260;28;19929;-69
2023/04/03 00:15:52;;;;;;;;;;;;;;;;;;4981526;28;19964;-70
2023/04/03 00:18:17;;;;;;;;;;;;;;;;;;4966274;28;19925;-70
2023/04/03 00:20:43;;;;;;;;;;;;;;;;;;4980084;28;20325;-69
2023/04/03 00:23:08;;;;;;;;;;;;;;;;;;4967754;28;20311;-69
2023/04/03 00:25:33;;;;;;;;;;;;;;;;;;4964789;28;20027;-69
2023/04/03 00:28:01;;;;;;;;;;;;;;;;;;4995861;28;19929;-69
2023/04/03 00:30:29;;;;;;;;;;;;;;;;;;4989101;28;20850;-70
2023/04/03 00:32:58;;;;;;;;;;;;;;;;;;4982904;28;19931;-69
2023/04/03 00:35:23;;;;;;;;;;;;;;;;;;4971120;28;19929;-69
2023/04/03 00:37:53;;;;;;;;;;;;;;;;;;4980708;28;20431;-69
2023/04/03 00:40:19;;;;;;;;;;;;;;;;;;4978498;28;20186;-69
2023/04/03 00:42:47;;;;;;;;;;;;;;;;;;4968097;28;19921;-69
2023/04/03 00:45:12;;;;;;;;;;;;;;;;;;4979804;28;19918;-69
2023/04/03 00:47:37;;;;;;;;;;;;;;;;;;4984319;28;19921;-69
2023/04/03 00:50:05;;;;;;;;;;;;;;;;;;4997409;28;19922;-69
2023/04/03 00:52:33;;;;;;;;;;;;;;;;;;4968149;28;20132;-69
2023/04/03 00:54:59;;;;;;;;;;;;;;;;;;4984820;28;20017;-69
2023/04/03 00:57:24;;;;;;;;;;;;;;;;;;4994307;28;20020;-70
2023/04/03 00:59:50;;;;;;;;;;;;;;;;;;4969698;28;19921;-68
2023/04/03 01:02:19;;;;;;;;;;;;;;;;;;4982093;28;20237;-68
2023/04/03 01:04:44;;;;;;;;;;;;;;;;;;4994561;28;19921;-68
2023/04/03 01:07:12;;;;;;;;;;;;;;;;;;4986183;28;19921;-68
2023/04/03 01:09:40;;;;;;;;;;;;;;;;;;4969054;28;19921;-68
2023/04/03 01:12:05;;;;;;;;;;;;;;;;;;4979067;28;20589;-68
2023/04/03 01:14:31;;;;;;;;;;;;;;;;;;4981781;28;19929;-70
2023/04/03 01:16:59;;;;;;;;;;;;;;;;;;4986731;28;20012;-69
2023/04/03 01:19:27;;;;;;;;;;;;;;;;;;4993518;28;19964;-69
2023/04/03 01:21:53;;;;;;;;;;;;;;;;;;4990476;28;20015;-69
2023/04/03 01:24:21;;;;;;;;;;;;;;;;;;4985463;28;20867;-68
2023/04/03 01:26:47;;;;;;;;;;;;;;;;;;4975247;28;20448;-69
2023/04/03 01:29:12;;;;;;;;;;;;;;;;;;4969278;28;19922;-66
2023/04/03 01:31:40;;;;;;;;;;;;;;;;;;4977103;28;19925;-69
2023/04/03 01:34:06;;;;;;;;;;;;;;;;;;4986513;28;19924;-68
2023/04/03 01:36:31;;;;;;;;;;;;;;;;;;4985531;28;19956;-68
2023/04/03 01:38:58;;;;;;;;;;;;;;;;;;4993205;28;19917;-69
2023/04/03 01:41:25;;;;;;;;;;;;;;;;;;4984612;28;19926;-71
2023/04/03 01:43:50;;;;;;;;;;;;;;;;;;4983741;28;20447;-69
2023/04/03 01:46:18;;;;;;;;;;;;;;;;;;4967270;28;19929;-70
2023/04/03 01:48:46;;;;;;;;;;;;;;;;;;4983857;28;20607;-69
2023/04/03 01:51:11;;;;;;;;;;;;;;;;;;4983205;28;19922;-70
2023/04/03 01:53:39;;;;;;;;;;;;;;;;;;4977838;28;20534;-70
2023/04/03 01:56:04;;;;;;;;;;;;;;;;;;4977763;28;19924;-70
2023/04/03 01:58:29;;;;;;;;;;;;;;;;;;4991723;28;19917;-70
2023/04/03 02:00:55;;;;;;;;;;;;;;;;;;4977788;28;20675;-70
2023/04/03 02:03:20;;;;;;;;;;;;;;;;;;4978345;28;20343;-69
2023/04/03 02:05:48;;;;;;;;;;;;;;;;;;4990611;28;19924;-69
2023/04/03 02:08:17;;;;;;;;;;;;;;;;;;4975950;28;19929;-70
2023/04/03 02:10:43;;;;;;;;;;;;;;;;;;4986615;28;19960;-70
2023/04/03 02:13:13;;;;;;;;;;;;;;;;;;4983388;28;19928;-69
2023/04/03 02:15:39;;;;;;;;;;;;;;;;;;4981732;28;20674;-69
2023/04/03 02:18:06;;;;;;;;;;;;;;;;;;4983572;28;19922;-70
2023/04/03 02:20:37;;;;;;;;;;;;;;;;;;4984161;28;19929;-69
2023/04/03 02:23:02;;;;;;;;;;;;;;;;;;4985245;28;19922;-70
2023/04/03 02:25:27;;;;;;;;;;;;;;;;;;4992022;28;19928;-70
2023/04/03 02:27:55;;;;;;;;;;;;;;;;;;4965367;28;20386;-71
2023/04/03 02:30:23;;;;;;;;;;;;;;;;;;4974045;28;19952;-70
2023/04/03 02:32:51;;;;;;;;;;;;;;;;;;4980552;28;20723;-70
2023/04/03 02:35:19;;;;;;;;;;;;;;;;;;4963203;28;19925;-70
2023/04/03 02:37:45;;;;;;;;;;;;;;;;;;4970846;28;20336;-70
2023/04/03 02:40:13;;;;;;;;;;;;;;;;;;4984183;28;20035;-70
2023/04/03 02:42:41;;;;;;;;;;;;;;;;;;4982384;28;20376;-71
2023/04/03 02:45:09;;;;;;;;;;;;;;;;;;4979490;28;19921;-71
2023/04/03 02:47:37;;;;;;;;;;;;;;;;;;4981611;28;20600;-70
2023/04/03 02:50:05;;;;;;;;;;;;;;;;;;4982622;28;19917;-71
2023/04/03 02:52:33;;;;;;;;;;;;;;;;;;4981087;28;20365;-71
2023/04/03 02:55:01;;;;;;;;;;;;;;;;;;4981951;28;19929;-70
2023/04/03 02:57:26;;;;;;;;;;;;;;;;;;4991057;28;19922;-72
2023/04/03 02:59:52;;;;;;;;;;;;;;;;;;4984713;28;20132;-71
2023/04/03 03:02:20;;;;;;;;;;;;;;;;;;4983741;28;19918;-71
2023/04/03 03:04:55;;;;;;;;;;;;;;;;;;4985647;28;20196;-72
2023/04/03 03:07:21;;;;;;;;;;;;;;;;;;4969262;28;19963;-71
2023/04/03 03:09:52;;;;;;;;;;;;;;;;;;4980744;28;20039;-71
2023/04/03 03:12:21;;;;;;;;;;;;;;;;;;4987830;28;20944;-72
2023/04/03 03:14:49;;;;;;;;;;;;;;;;;;4967637;28;19990;-72
2023/04/03 03:17:14;;;;;;;;;;;;;;;;;;4975396;28;19948;-71
2023/04/03 03:19:40;;;;;;;;;;;;;;;;;;4981075;28;19996;-71
2023/04/03 03:22:05;;;;;;;;;;;;;;;;;;4976824;28;20199;-72
2023/04/03 03:24:33;;;;;;;;;;;;;;;;;;4991282;28;20195;-72
2023/04/03 03:26:59;;;;;;;;;;;;;;;;;;4976655;28;20297;-72
2023/04/03 03:29:27;;;;;;;;;;;;;;;;;;4967811;28;19941;-73
2023/04/03 03:31:53;;;;;;;;;;;;;;;;;;4979600;28;19925;-72
2023/04/03 03:34:20;;;;;;;;;;;;;;;;;;4978362;28;20155;-72
2023/04/03 03:36:46;;;;;;;;;;;;;;;;;;4977409;28;19924;-72
2023/04/03 03:39:11;;;;;;;;;;;;;;;;;;4978646;28;20008;-73
2023/04/03 03:41:36;;;;;;;;;;;;;;;;;;4978175;28;19948;-72
2023/04/03 03:44:05;;;;;;;;;;;;;;;;;;4961328;28;20025;-73
2023/04/03 03:46:30;;;;;;;;;;;;;;;;;;4979026;28;20373;-72
2023/04/03 03:48:56;;;;;;;;;;;;;;;;;;4981684;28;20154;-72
2023/04/03 03:51:24;;;;;;;;;;;;;;;;;;4976909;28;20029;-72
2023/04/03 03:53:49;;;;;;;;;;;;;;;;;;4983630;28;20895;-75
2023/04/03 03:56:20;;;;;;;;;;;;;;;;;;4978904;28;19921;-71
2023/04/03 03:58:49;;;;;;;;;;;;;;;;;;4981464;28;20395;-71
2023/04/03 04:01:15;;;;;;;;;;;;;;;;;;4968277;28;19924;-74
2023/04/03 04:03:45;;;;;;;;;;;;;;;;;;4980643;28;19928;-73
2023/04/03 04:06:11;;;;;;;;;;;;;;;;;;4988437;28;20063;-73
2023/04/03 04:08:36;;;;;;;;;;;;;;;;;;4968980;28;21636;-73
2023/04/03 04:11:04;;;;;;;;;;;;;;;;;;4982576;28;20071;-73
2023/04/03 04:13:32;;;;;;;;;;;;;;;;;;4983407;28;20676;-74
2023/04/03 04:16:01;;;;;;;;;;;;;;;;;;4988585;28;20051;-73
2023/04/03 04:18:26;;;;;;;;;;;;;;;;;;4985764;28;19917;-74
2023/04/03 04:20:55;;;;;;;;;;;;;;;;;;4982998;28;21243;-73
2023/04/03 04:23:20;;;;;;;;;;;;;;;;;;4980165;28;19924;-74
2023/04/03 04:25:46;;;;;;;;;;;;;;;;;;4970168;28;20303;-74
2023/04/03 04:28:11;;;;;;;;;;;;;;;;;;4970161;28;19921;-74
2023/04/03 04:30:36;;;;;;;;;;;;;;;;;;4978042;28;19940;-74
2023/04/03 04:33:02;;;;;;;;;;;;;;;;;;4984037;28;20500;-72
2023/04/03 04:35:27;;;;;;;;;;;;;;;;;;4993190;28;19926;-74
2023/04/03 04:37:52;;;;;;;;;;;;;;;;;;4984830;28;19957;-73
2023/04/03 04:40:18;;;;;;;;;;;;;;;;;;4985767;28;19929;-73
2023/04/03 04:42:43;;;;;;;;;;;;;;;;;;4969238;28;19927;-73
2023/04/03 04:45:08;;;;;;;;;;;;;;;;;;4970828;28;20013;-74
2023/04/03 04:47:34;;;;;;;;;;;;;;;;;;4986853;28;19928;-74
2023/04/03 04:50:02;;;;;;;;;;;;;;;;;;4968344;28;19924;-74
2023/04/03 04:52:27;;;;;;;;;;;;;;;;;;4984101;28;20246;-74
2023/04/03 04:54:52;;;;;;;;;;;;;;;;;;4981734;28;19968;-74
2023/04/03 04:57:18;;;;;;;;;;;;;;;;;;4974649;28;19965;-74
2023/04/03 04:59:43;;;;;;;;;;;;;;;;;;4979012;28;19918;-74
2023/04/03 05:02:11;;;;;;;;;;;;;;;;;;4974492;28;20407;-75
2023/04/03 05:04:36;;;;;;;;;;;;;;;;;;4978326;28;21876;-73
2023/04/03 05:07:07;;;;;;;;;;;;;;;;;;4973588;28;20390;-74
2023/04/03 05:09:32;;;;;;;;;;;;;;;;;;4972758;28;20020;-74
2023/04/03 05:12:00;;;;;;;;;;;;;;;;;;4982647;28;19979;-74
2023/04/03 05:14:25;;;;;;;;;;;;;;;;;;4980282;28;19922;-74
2023/04/03 05:16:53;;;;;;;;;;;;;;;;;;4966667;28;20414;-74
2023/04/03 05:19:21;;;;;;;;;;;;;;;;;;4967573;28;21807;-74
2023/04/03 05:21:47;;;;;;;;;;;;;;;;;;4981420;28;19947;-74
2023/04/03 05:24:12;;;;;;;;;;;;;;;;;;4982624;28;19921;-75
2023/04/03 05:26:38;;;;;;;;;;;;;;;;;;4985833;28;19926;-75
2023/04/03 05:29:03;;;;;;;;;;;;;;;;;;4980501;28;20012;-74
2023/04/03 05:31:31;;;;;;;;;;;;;;;;;;4967541;28;20384;-74
2023/04/03 05:33:59;;;;;;;;;;;;;;;;;;4977777;28;20232;-72
2023/04/03 05:36:25;;;;;;;;;;;;;;;;;;4967134;28;20619;-76
2023/04/03 05:38:53;;;;;;;;;;;;;;;;;;4986708;28;20011;-73
2023/04/03 05:41:18;;;;;;;;;;;;;;;;;;4965678;28;19932;-72
2023/04/03 05:43:46;;;;;;;;;;;;;;;;;;4973263;28;20396;-74
2023/04/03 05:46:12;;;;;;;;;;;;;;;;;;4986102;28;19996;-74
2023/04/03 05:48:37;;;;;;;;;;;;;;;;;;4970919;28;19917;-74
2023/04/03 05:51:05;;;;;;;;;;;;;;;;;;4994701;28;19957;-74
2023/04/03 05:53:30;;;;;;;;;;;;;;;;;;4977286;28;19932;-74
2023/04/03 05:55:55;;;;;;;;;;;;;;;;;;4967834;28;19922;-74
2023/04/03 05:58:21;;;;;;;;;;;;;;;;;;4965618;28;19925;-75
2023/04/03 06:00:46;;;;;;;;;;;;;;;;;;4993161;28;19978;-74
2023/04/03 06:03:11;;;;;;;;;;;;;;;;;;4980861;28;20525;-73
2023/04/03 06:05:36;;;;;;;;;;;;;;;;;;4977212;28;19917;-74
2023/04/03 06:08:02;;;;;;;;;;;;;;;;;;4962531;28;19943;-73
2023/04/03 06:10:28;;;;;;;;;;;;;;;;;;4985156;28;20188;-73
2023/04/03 06:12:55;;;;;;;;;;;;;;;;;;4984756;28;19925;-73
2023/04/03 06:15:23;;;;;;;;;;;;;;;;;;4968738;28;20566;-73
2023/04/03 06:17:53;;;;;;;;;;;;;;;;;;4985114;28;19921;-73
2023/04/03 06:20:18;;;;;;;;;;;;;;;;;;4989971;28;20232;-72
2023/04/03 06:22:44;;;;;;;;;;;;;;;;;;4978175;28;20043;-73
2023/04/03 06:25:09;;;;;;;;;;;;;;;;;;4981211;28;19921;-73
2023/04/03 06:27:37;;;;;;;;;;;;;;;;;;4976763;28;20482;-73
2023/04/03 06:30:06;;;;;;;;;;;;;;;;;;4986252;28;19918;-74
2023/04/03 06:32:33;;;;;;;;;;;;;;;;;;4968382;28;21499;-73
2023/04/03 06:35:01;;;;;;;;;;;;;;;;;;4991089;28;19932;-75
2023/04/03 06:37:30;;;;;;;;;;;;;;;;;;4991214;28;19917;-74
2023/04/03 06:39:55;;;;;;;;;;;;;;;;;;4983539;28;19941;-74
2023/04/03 06:42:21;;;;;;;;;;;;;;;;;;4984019;28;19921;-76
2023/04/03 06:44:49;;;;;;;;;;;;;;;;;;4983038;28;19917;-74
2023/04/03 06:47:17;;;;;;;;;;;;;;;;;;4991988;28;20019;-75
2023/04/03 06:49:45;;;;;;;;;;;;;;;;;;4985451;28;20254;-75
2023/04/03 06:52:13;;;;;;;;;;;;;;;;;;4984594;28;19925;-76
2023/04/03 06:54:41;;;;;;;;;;;;;;;;;;4977222;28;20347;-75
2023/04/03 06:57:08;;;;;;;;;;;;;;;;;;4986012;28;19925;-76
2023/04/03 06:59:37;;;;;;;;;;;;;;;;;;4994501;28;19918;-76
2023/04/03 07:02:02;;;;;;;;;;;;;;;;;;4988282;28;20303;-76
2023/04/03 07:04:27;;;;;;;;;;;;;;;;;;4971533;28;19937;-76
2023/04/03 07:06:55;;;;;;;;;;;;;;;;;;4965816;28;19984;-76
2023/04/03 07:09:21;;;;;;;;;;;;;;;;;;4980528;28;20109;-77
2023/04/03 07:11:49;;;;;;;;;;;;;;;;;;4979681;28;20032;-76
2023/04/03 07:14:14;;;;;;;;;;;;;;;;;;4986115;28;20416;-75
2023/04/03 07:16:42;;;;;;;;;;;;;;;;;;4974154;28;19928;-75
2023/04/03 07:19:08;;;;;;;;;;;;;;;;;;4983288;28;19922;-75
2023/04/03 07:21:34;;;;;;;;;;;;;;;;;;4984098;28;19928;-76
2023/04/03 07:24:00;;;;;;;;;;;;;;;;;;4981544;28;21377;-76
2023/04/03 07:26:25;;;;;;;;;;;;;;;;;;4975631;28;19988;-76
2023/04/03 07:28:51;;;;;;;;;;;;;;;;;;4968340;28;19968;-75
2023/04/03 07:31:16;;;;;;;;;;;;;;;;;;4980827;28;19921;-76
2023/04/03 07:33:42;;;;;;;;;;;;;;;;;;4985810;28;20064;-75
2023/04/03 07:36:07;;;;;;;;;;;;;;;;;;4981062;28;19968;-77
2023/04/03 07:38:33;;;;;;;;;;;;;;;;;;4984131;28;20770;-78
2023/04/03 07:40:58;;;;;;;;;;;;;;;;;;4986568;28;20059;-75
2023/04/03 07:43:24;;;;;;;;;;;;;;;;;;4985263;28;20045;-74
2023/04/03 07:45:50;;;;;;;;;;;;;;;;;;4980608;28;19925;-75
2023/04/03 07:48:15;;;;;;;;;;;;;;;;;;4966566;28;19926;-76
2023/04/03 07:50:46;;;;;;;;;;;;;;;;;;4982128;28;19928;-75
2023/04/03 07:53:11;;;;;;;;;;;;;;;;;;4982208;28;19917;-74
2023/04/03 07:55:42;;;;;;;;;;;;;;;;;;4963353;28;19951;-73
2023/04/03 07:58:10;;;;;;;;;;;;;;;;;;4979480;28;19964;-74
2023/04/03 08:00:40;;;;;;;;;;;;;;;;;;4983587;28;20295;-74
2023/04/03 08:03:09;;;;;;;;;;;;;;;;;;4977536;28;19925;-72
2023/04/03 08:05:34;;;;;;;;;;;;;;;;;;4982203;28;19932;-73
2023/04/03 08:08:00;;;;;;;;;;;;;;;;;;4978108;28;20396;-73
2023/04/03 08:10:25;;;;;;;;;;;;;;;;;;4981495;28;21877;-74
2023/04/03 08:12:51;;;;;;;;;;;;;;;;;;4992840;28;20476;-72
2023/04/03 08:15:16;;;;;;;;;;;;;;;;;;4975772;28;20059;-68
2023/04/03 08:17:42;;;;;;;;;;;;;;;;;;4993728;28;19917;-72
2023/04/03 08:20:08;;;;;;;;;;;;;;;;;;4961692;28;21825;-71
2023/04/03 08:22:35;;;;;;;;;;;;;;;;;;4984373;28;19968;-69
2023/04/03 08:25:01;;;;;;;;;;;;;;;;;;4982411;28;20072;-72
2023/04/03 08:27:27;;;;;;;;;;;;;;;;;;4984477;28;19921;-71
2023/04/03 08:29:52;;;;;;;;;;;;;;;;;;4982465;28;19941;-71
2023/04/03 08:32:18;;;;;;;;;;;;;;;;;;4980905;28;19922;-69
2023/04/03 08:34:44;;;;;;;;;;;;;;;;;;4973176;28;19923;-71
2023/04/03 08:37:09;;;;;;;;;;;;;;;;;;4987965;28;19921;-73
2023/04/03 08:39:35;;;;;;;;;;;;;;;;;;4966144;28;19925;-72
2023/04/03 08:42:00;;;;;;;;;;;;;;;;;;4980322;28;19972;-71
2023/04/03 08:44:26;;;;;;;;;;;;;;;;;;4972192;28;19917;-71
2023/04/03 08:46:54;;;;;;;;;;;;;;;;;;4982583;28;20547;-71
2023/04/03 08:49:21;;;;;;;;;;;;;;;;;;4979497;28;19956;-73
2023/04/03 08:51:46;;;;;;;;;;;;;;;;;;4961211;28;20420;-69
2023/04/03 08:54:11;;;;;;;;;;;;;;;;;;4976976;28;21491;-70
2023/04/03 08:56:37;;;;;;;;;;;;;;;;;;4979243;28;19949;-71
2023/04/03 08:59:02;;;;;;;;;;;;;;;;;;4976545;28;19957;-70
2023/04/03 09:01:28;;;;;;;;;;;;;;;;;;4976315;28;19925;-73
2023/04/03 09:03:53;;;;;;;;;;;;;;;;;;4972398;28;19929;-72
2023/04/03 09:06:18;;;;;;;;;;;;;;;;;;4983161;28;20389;-73
2023/04/03 09:08:44;;;;;;;;;;;;;;;;;;4983055;28;20205;-71
2023/04/03 09:11:10;;;;;;;;;;;;;;;;;;4980229;28;20438;-72
2023/04/03 09:13:36;;;;;;;;;;;;;;;;;;4985172;28;20104;-72
2023/04/03 09:16:02;;;;;;;;;;;;;;;;;;4983501;28;19932;-73
2023/04/03 09:18:27;;;;;;;;;;;;;;;;;;4981121;28;20747;-72
2023/04/03 09:20:52;;;;;;;;;;;;;;;;;;4964717;28;20388;-72
2023/04/03 09:23:18;;;;;;;;;;;;;;;;;;4981284;28;19971;-70
2023/04/03 09:25:43;;;;;;;;;;;;;;;;;;4983233;28;20573;-71
2023/04/03 09:28:12;;;;;;;;;;;;;;;;;;4985630;28;20035;-72
2023/04/03 09:30:41;;;;;;;;;;;;;;;;;;4976756;28;19924;-72
2023/04/03 09:33:06;;;;;;;;;;;;;;;;;;4977959;28;19918;-71
2023/04/03 09:35:32;;;;;;;;;;;;;;;;;;4964532;28;20013;-71
2023/04/03 09:37:58;;;;;;;;;;;;;;;;;;4983623;28;20368;-71
2023/04/03 09:40:24;;;;;;;;;;;;;;;;;;4984797;28;20444;-71
2023/04/03 09:42:49;;;;;;;;;;;;;;;;;;4985375;28;19929;-70
2023/04/03 09:45:14;;;;;;;;;;;;;;;;;;4984262;28;20396;-70
2023/04/03 09:47:41;;;;;;;;;;;;;;;;;;4982986;28;20364;-72
2023/04/03 09:50:07;;;;;;;;;;;;;;;;;;4983218;28;20115;-71
2023/04/03 09:52:33;;;;;;;;;;;;;;;;;;4983099;28;19925;-71
2023/04/03 09:54:58;;;;;;;;;;;;;;;;;;4966117;28;20553;-72
2023/04/03 09:57:24;;;;;;;;;;;;;;;;;;4981675;28;19949;-72
2023/04/03 09:59:49;;;;;;;;;;;;;;;;;;4986560;28;19922;-73
2023/04/03 10:02:15;;;;;;;;;;;;;;;;;;4964048;28;19926;-72
2023/04/03 10:04:40;;;;;;;;;;;;;;;;;;4981013;28;19917;-73
2023/04/03 10:07:05;;;;;;;;;;;;;;;;;;4982399;28;19921;-72
2023/04/03 10:09:30;;;;;;;;;;;;;;;;;;4979370;28;20728;-70
2023/04/03 10:11:56;;;;;;;;;;;;;;;;;;4981112;28;20104;-72
2023/04/03 10:14:21;;;;;;;;;;;;;;;;;;4990532;28;19921;-73
2023/04/03 10:16:47;;;;;;;;;;;;;;;;;;4993906;28;19941;-73
2023/04/03 10:19:13;;;;;;;;;;;;;;;;;;4984322;28;20396;-70
2023/04/03 10:21:38;;;;;;;;;;;;;;;;;;4983522;28;20517;-72
2023/04/03 10:24:03;;;;;;;;;;;;;;;;;;4980559;28;19926;-71
2023/04/03 10:26:29;;;;;;;;;;;;;;;;;;4989387;28;19924;-73
2023/04/03 10:28:54;;;;;;;;;;;;;;;;;;4980755;28;20067;-70
2023/04/03 10:31:20;;;;;;;;;;;;;;;;;;4986252;28;19921;-74
2023/04/03 10:33:45;;;;;;;;;;;;;;;;;;4989085;28;21125;-72
2023/04/03 10:36:12;;;;;;;;;;;;;;;;;;4979726;28;19934;-71
2023/04/03 10:38:37;;;;;;;;;;;;;;;;;;4982105;28;19921;-74
2023/04/03 10:41:03;;;;;;;;;;;;;;;;;;4984037;28;19926;-70
2023/04/03 10:43:28;;;;;;;;;;;;;;;;;;4984919;28;19968;-70
2023/04/03 10:45:54;;;;;;;;;;;;;;;;;;4982927;28;19929;-71
2023/04/03 10:48:19;;;;;;;;;;;;;;;;;;4982319;28;19928;-72
2023/04/03 10:50:45;;;;;;;;;;;;;;;;;;4980529;28;20211;-72
2023/04/03 10:53:10;;;;;;;;;;;;;;;;;;4982426;28;20296;-72
2023/04/03 10:55:39;;;;;;;;;;;;;;;;;;4971025;28;19929;-72
2023/04/03 10:58:04;;;;;;;;;;;;;;;;;;4980675;28;19921;-73
2023/04/03 11:00:29;;;;;;;;;;;;;;;;;;4975621;28;19928;-74
2023/04/03 11:02:55;;;;;;;;;;;;;;;;;;4985864;28;19925;-73
2023/04/03 11:05:20;;;;;;;;;;;;;;;;;;4973948;28;19921;-71
2023/04/03 11:07:46;;;;;;;;;;;;;;;;;;4982566;28;19929;-72
2023/04/03 11:10:13;;;;;;;;;;;;;;;;;;4980881;28;20049;-72
2023/04/03 11:12:38;;;;;;;;;;;;;;;;;;4983693;28;19987;-72
2023/04/03 11:15:04;;;;;;;;;;;;;;;;;;4982563;28;20329;-70
2023/04/03 11:17:30;;;;;;;;;;;;;;;;;;4964178;28;19932;-72
2023/04/03 11:19:56;;;;;;;;;;;;;;;;;;4985371;28;20012;-72
2023/04/03 11:22:22;;;;;;;;;;;;;;;;;;4982536;28;20399;-73
2023/04/03 11:24:48;;;;;;;;;;;;;;;;;;4981423;28;19918;-71
2023/04/03 11:27:14;;;;;;;;;;;;;;;;;;4984731;28;19984;-72
2023/04/03 11:29:39;;;;;;;;;;;;;;;;;;4965843;28;19917;-70
2023/04/03 11:32:07;;;;;;;;;;;;;;;;;;4984066;28;19964;-68
2023/04/03 11:34:34;;;;;;;;;;;;;;;;;;4964078;28;20457;-69
2023/04/03 11:37:00;;;;;;;;;;;;;;;;;;4983120;28;20365;-69
2023/04/03 11:39:26;;;;;;;;;;;;;;;;;;4994676;28;20001;-70
2023/04/03 11:41:51;;;;;;;;;;;;;;;;;;4967860;28;19932;-70
2023/04/03 11:44:19;;;;;;;;;;;;;;;;;;4978454;28;20504;-70
2023/04/03 11:46:45;;;;;;;;;;;;;;;;;;4980180;28;19918;-71
2023/04/03 11:49:10;;;;;;;;;;;;;;;;;;4984460;28;19922;-72
2023/04/03 11:51:36;;;;;;;;;;;;;;;;;;4980455;28;19940;-72
2023/04/03 11:54:01;;;;;;;;;;;;;;;;;;4982677;28;20509;-69
2023/04/03 11:56:27;;;;;;;;;;;;;;;;;;4970977;28;19921;-71
2023/04/03 11:58:52;;;;;;;;;;;;;;;;;;4984529;28;19929;-72
2023/04/03 12:01:18;;;;;;;;;;;;;;;;;;4981210;28;19971;-72
2023/04/03 12:03:43;;;;;;;;;;;;;;;;;;4980215;28;19947;-72
2023/04/03 12:06:16;;;;;;;;;;;;;;;;;;4982814;28;19917;-72
2023/04/03 12:08:42;;;;;;;;;;;;;;;;;;4977276;28;20486;-71
2023/04/03 12:11:07;;;;;;;;;;;;;;;;;;4968945;28;19918;-70
2023/04/03 12:13:33;;;;;;;;;;;;;;;;;;4982686;28;19922;-70
2023/04/03 12:15:59;;;;;;;;;;;;;;;;;;4979562;28;19929;-72
2023/04/03 12:18:25;;;;;;;;;;;;;;;;;;4988970;28;19918;-73
2023/04/03 12:20:51;;;;;;;;;;;;;;;;;;4964721;28;20447;-70
2023/04/03 12:23:18;;;;;;;;;;;;;;;;;;4976392;28;20369;-70
2023/04/03 12:25:43;;;;;;;;;;;;;;;;;;4982212;28;20031;-72
2023/04/03 12:28:09;;;;;;;;;;;;;;;;;;4979321;28;19921;-68
2023/04/03 12:30:35;;;;;;;;;;;;;;;;;;4980698;28;19917;-74
2023/04/03 12:33:01;;;;;;;;;;;;;;;;;;4982867;28;20084;-70
2023/04/03 12:35:28;;;;;;;;;;;;;;;;;;4997755;28;19922;-72
2023/04/03 12:37:55;;;;;;;;;;;;;;;;;;4997632;28;20031;-70
2023/04/03 12:40:20;;;;;;;;;;;;;;;;;;4982432;28;19936;-70
2023/04/03 12:42:46;;;;;;;;;;;;;;;;;;4987890;28;19921;-71
2023/04/03 12:45:11;;;;;;;;;;;;;;;;;;4989439;28;20076;-69
2023/04/03 12:47:39;;;;;;;;;;;;;;;;;;4985350;28;19961;-71
2023/04/03 12:50:05;;;;;;;;;;;;;;;;;;4983225;28;20010;-70
2023/04/03 12:52:30;;;;;;;;;;;;;;;;;;4985943;28;19929;-70
2023/04/03 12:54:57;;;;;;;;;;;;;;;;;;4986277;28;20221;-69
2023/04/03 12:57:23;;;;;;;;;;;;;;;;;;4985883;28;19929;-68
2023/04/03 12:59:48;;;;;;;;;;;;;;;;;;4984374;28;19917;-70
2023/04/03 13:02:14;;;;;;;;;;;;;;;;;;4982946;28;19921;-68
2023/04/03 13:04:40;;;;;;;;;;;;;;;;;;4986166;28;19921;-70
2023/04/03 13:07:05;;;;;;;;;;;;;;;;;;4985071;28;20304;-71
2023/04/03 13:09:31;;;;;;;;;;;;;;;;;;4986194;28;19922;-72
2023/04/03 13:11:57;;;;;;;;;;;;;;;;;;4987620;28;19933;-71
2023/04/03 13:14:22;;;;;;;;;;;;;;;;;;4985796;28;19921;-69
2023/04/03 13:16:48;;;;;;;;;;;;;;;;;;4981595;28;20073;-68
2023/04/03 13:19:13;;;;;;;;;;;;;;;;;;4985204;28;19933;-71
2023/04/03 13:21:41;;;;;;;;;;;;;;;;;;4986511;28;19948;-67
2023/04/03 13:24:07;;;;;;;;;;;;;;;;;;4970573;28;19963;-71
2023/04/03 13:26:32;;;;;;;;;;;;;;;;;;4991002;28;19922;-70
2023/04/03 13:28:58;;;;;;;;;;;;;;;;;;4977336;28;20225;-68
2023/04/03 13:31:26;;;;;;;;;;;;;;;;;;4984435;28;20163;-69
2023/04/03 13:33:52;;;;;;;;;;;;;;;;;;4977591;28;20223;-69
2023/04/03 13:36:17;;;;;;;;;;;;;;;;;;4996561;28;19921;-74
2023/04/03 13:38:43;;;;;;;;;;;;;;;;;;4987307;28;19968;-69
2023/04/03 13:41:09;;;;;;;;;;;;;;;;;;4982123;28;19975;-67
2023/04/03 13:43:34;;;;;;;;;;;;;;;;;;4971770;28;19917;-68
2023/04/03 13:46:00;;;;;;;;;;;;;;;;;;4981762;28;19999;-71
2023/04/03 13:48:25;;;;;;;;;;;;;;;;;;4976936;28;20060;-72
2023/04/03 13:50:51;;;;;;;;;;;;;;;;;;4991817;28;20043;-72
2023/04/03 13:53:16;;;;;;;;;;;;;;;;;;4989795;28;19926;-71
2023/04/03 13:55:44;;;;;;;;;;;;;;;;;;4972231;28;19917;-69
2023/04/03 13:58:11;;;;;;;;;;;;;;;;;;4977835;28;19945;-70
2023/04/03 14:00:39;;;;;;;;;;;;;;;;;;4986909;28;20953;-71
2023/04/03 14:03:07;;;;;;;;;;;;;;;;;;4985814;28;19922;-69
2023/04/03 14:05:33;;;;;;;;;;;;;;;;;;4978669;28;20403;-71
2023/04/03 14:08:01;;;;;;;;;;;;;;;;;;4987599;28;19959;-70
2023/04/03 14:10:27;;;;;;;;;;;;;;;;;;4980906;28;19917;-71
2023/04/03 14:12:57;;;;;;;;;;;;;;;;;;4978777;28;19952;-72
2023/04/03 14:15:28;;;;;;;;;;;;;;;;;;4973490;28;21605;-68
2023/04/03 14:17:56;;;;;;;;;;;;;;;;;;4988753;28;19944;-69
2023/04/03 14:20:21;;;;;;;;;;;;;;;;;;4979294;28;19925;-68
2023/04/03 14:22:47;;;;;;;;;;;;;;;;;;4986813;28;20263;-70
2023/04/03 14:25:15;;;;;;;;;;;;;;;;;;4983460;28;20320;-70
2023/04/03 14:27:40;;;;;;;;;;;;;;;;;;4986548;28;20021;-72
2023/04/03 14:30:05;;;;;;;;;;;;;;;;;;4980780;28;20028;-69
2023/04/03 14:32:31;;;;;;;;;;;;;;;;;;4982417;28;19921;-70
2023/04/03 14:34:57;;;;;;;;;;;;;;;;;;4966242;28;19991;-69
2023/04/03 14:37:23;;;;;;;;;;;;;;;;;;4989858;28;22082;-70
2023/04/03 14:39:48;;;;;;;;;;;;;;;;;;4977301;28;19961;-74
2023/04/03 14:42:13;;;;;;;;;;;;;;;;;;4972668;28;20006;-72
2023/04/03 14:44:41;;;;;;;;;;;;;;;;;;4983694;28;20036;-71
2023/04/03 14:47:06;;;;;;;;;;;;;;;;;;4985965;28;19945;-71
2023/04/03 14:49:32;;;;;;;;;;;;;;;;;;4967602;28;20123;-71
2023/04/03 14:51:57;;;;;;;;;;;;;;;;;;4981530;28;20013;-70
2023/04/03 14:54:27;;;;;;;;;;;;;;;;;;4974824;28;19918;-70
2023/04/03 14:56:52;;;;;;;;;;;;;;;;;;4986344;28;20035;-72
2023/04/03 14:59:19;;;;;;;;;;;;;;;;;;4969851;28;20651;-70
2023/04/03 15:01:48;;;;;;;;;;;;;;;;;;4992272;28;21523;-72
2023/04/03 15:04:13;;;;;;;;;;;;;;;;;;4976222;28;19917;-70
2023/04/03 15:06:40;;;;;;;;;;;;;;;;;;4965690;28;20064;-71
2023/04/03 15:09:08;;;;;;;;;;;;;;;;;;4992005;28;19976;-74
2023/04/03 15:11:36;;;;;;;;;;;;;;;;;;4986737;28;20005;-71
2023/04/03 15:14:02;;;;;;;;;;;;;;;;;;4981854;28;19917;-70
2023/04/03 15:16:27;;;;;;;;;;;;;;;;;;4983924;28;19968;-71
2023/04/03 15:18:52;;;;;;;;;;;;;;;;;;4966526;28;20000;-68
2023/04/03 15:21:18;;;;;;;;;;;;;;;;;;4976845;28;20313;-71
2023/04/03 15:23:45;;;;;;;;;;;;;;;;;;4978146;28;20377;-70
2023/04/03 15:26:10;;;;;;;;;;;;;;;;;;4963653;28;20012;-69
2023/04/03 15:28:39;;;;;;;;;;;;;;;;;;4982466;28;19976;-68
2023/04/03 15:31:07;;;;;;;;;;;;;;;;;;4980919;28;20137;-69
2023/04/03 15:33:35;;;;;;;;;;;;;;;;;;4975197;28;20377;-69
2023/04/03 15:36:00;;;;;;;;;;;;;;;;;;4974069;28;19917;-70
2023/04/03 15:38:28;;;;;;;;;;;;;;;;;;4978026;28;19979;-70
2023/04/03 15:40:55;;;;;;;;;;;;;;;;;;4984583;28;20313;-73
2023/04/03 15:43:21;;;;;;;;;;;;;;;;;;4985881;28;19925;-70
2023/04/03 15:45:48;;;;;;;;;;;;;;;;;;4983054;28;19975;-69
2023/04/03 15:48:17;;;;;;;;;;;;;;;;;;4990404;28;21962;-71
2023/04/03 15:50:42;;;;;;;;;;;;;;;;;;4980812;28;19961;-70
2023/04/03 15:53:09;;;;;;;;;;;;;;;;;;4985967;28;20039;-71
2023/04/03 15:55:35;;;;;;;;;;;;;;;;;;4976149;28;20006;-67
2023/04/03 15:58:03;;;;;;;;;;;;;;;;;;4983678;28;19925;-70
2023/04/03 16:00:29;;;;;;;;;;;;;;;;;;4982359;28;20267;-71
2023/04/03 16:02:57;;;;;;;;;;;;;;;;;;4984482;28;20412;-68
2023/04/03 16:05:22;;;;;;;;;;;;;;;;;;4986049;28;20242;-68
2023/04/03 16:07:47;;;;;;;;;;;;;;;;;;4979797;28;19921;-68
2023/04/03 16:10:13;;;;;;;;;;;;;;;;;;4981723;28;19917;-69
2023/04/03 16:12:41;;;;;;;;;;;;;;;;;;4971031;28;20672;-69
2023/04/03 16:15:09;;;;;;;;;;;;;;;;;;4993298;28;19921;-68
2023/04/03 16:17:36;;;;;;;;;;;;;;;;;;4968608;28;19918;-70
2023/04/03 16:20:03;;;;;;;;;;;;;;;;;;4965806;28;19921;-69
2023/04/03 16:22:28;;;;;;;;;;;;;;;;;;4984167;28;19929;-69
2023/04/03 16:24:56;;;;;;;;;;;;;;;;;;4981582;28;20581;-69
2023/04/03 16:27:22;;;;;;;;;;;;;;;;;;4983012;28;20053;-68
2023/04/03 16:29:49;;;;;;;;;;;;;;;;;;4972290;28;19933;-68
2023/04/03 16:32:15;;;;;;;;;;;;;;;;;;4967430;28;19935;-71
2023/04/03 16:34:40;;;;;;;;;;;;;;;;;;4983455;28;19921;-67
2023/04/03 16:37:05;;;;;;;;;;;;;;;;;;4968295;28;20359;-68
2023/04/03 16:39:33;;;;;;;;;;;;;;;;;;4976904;28;20459;-71